sensor_id;sensor_type;location;lat;lon;timestamp;P1;durP1;ratioP1;P2;durP2;ratioP2
18267;SDS011;9260;49.998;19.880;2022-10-16T00:06:59;215.13;;;99.87;;
18267;SDS011;9260;49.998;19.880;2022-10-16T00:17:03;221.33;;;104.30;;
18267;SDS011;9260;49.998;19.880;2022-10-16T00:27:07;206.53;;;91.83;;
18267;SDS011;9260;49.998;19.880;2022-10-16T00:37:11;211.13;;;97.10;;
18267;SDS011;9260;49.998;19.880;2022-10-16T00:47:18;211.50;;;93.93;;
18267;SDS011;9260;49.998;19.880;2022-10-16T00:57:25;209.77;;;97.40;;
18267;SDS011;9260;49.998;19.880;2022-10-16T01:07:33;212.93;;;97.63;;
18267;SDS011;9260;49.998;19.880;2022-10-16T01:17:48;209.20;;;95.70;;
18267;SDS011;9260;49.998;19.880;2022-10-16T01:27:59;218.90;;;102.83;;
18267;SDS011;9260;49.998;19.880;2022-10-16T01:38:05;207.47;;;94.03;;
18267;SDS011;9260;49.998;19.880;2022-10-16T01:48:17;208.83;;;91.93;;
18267;SDS011;9260;49.998;19.880;2022-10-16T01:58:22;209.10;;;94.33;;
18267;SDS011;9260;49.998;19.880;2022-10-16T02:08:29;214.07;;;94.40;;
18267;SDS011;9260;49.998;19.880;2022-10-16T02:18:33;209.73;;;97.63;;
18267;SDS011;9260;49.998;19.880;2022-10-16T02:28:39;212.90;;;95.83;;
18267;SDS011;9260;49.998;19.880;2022-10-16T02:38:48;209.47;;;92.60;;
18267;SDS011;9260;49.998;19.880;2022-10-16T02:48:53;215.67;;;93.23;;
18267;SDS011;9260;49.998;19.880;2022-10-16T02:58:56;216.40;;;98.73;;
18267;SDS011;9260;49.998;19.880;2022-10-16T03:09:01;213.20;;;96.77;;
18267;SDS011;9260;49.998;19.880;2022-10-16T03:19:04;209.80;;;94.47;;
18267;SDS011;9260;49.998;19.880;2022-10-16T03:29:09;211.43;;;92.00;;
18267;SDS011;9260;49.998;19.880;2022-10-16T03:39:12;212.13;;;93.07;;
18267;SDS011;9260;49.998;19.880;2022-10-16T03:49:17;204.17;;;88.80;;
18267;SDS011;9260;49.998;19.880;2022-10-16T03:59:20;202.43;;;88.63;;
18267;SDS011;9260;49.998;19.880;2022-10-16T04:09:25;205.97;;;89.97;;
18267;SDS011;9260;49.998;19.880;2022-10-16T04:19:28;204.40;;;87.83;;
18267;SDS011;9260;49.998;19.880;2022-10-16T04:29:33;208.70;;;90.10;;
18267;SDS011;9260;49.998;19.880;2022-10-16T04:39:36;208.93;;;90.70;;
18267;SDS011;9260;49.998;19.880;2022-10-16T04:49:41;208.07;;;92.73;;
18267;SDS011;9260;49.998;19.880;2022-10-16T04:59:44;211.97;;;93.73;;
18267;SDS011;9260;49.998;19.880;2022-10-16T05:09:49;210.60;;;93.20;;
18267;SDS011;9260;49.998;19.880;2022-10-16T05:19:52;206.20;;;89.07;;
18267;SDS011;9260;49.998;19.880;2022-10-16T05:29:57;222.07;;;113.17;;
18267;SDS011;9260;49.998;19.880;2022-10-16T05:40:00;214.03;;;93.70;;
18267;SDS011;9260;49.998;19.880;2022-10-16T05:50:05;206.17;;;89.73;;
18267;SDS011;9260;49.998;19.880;2022-10-16T06:00:10;200.50;;;88.97;;
18267;SDS011;9260;49.998;19.880;2022-10-16T06:10:15;207.33;;;92.70;;
18267;SDS011;9260;49.998;19.880;2022-10-16T06:20:18;200.33;;;89.13;;
18267;SDS011;9260;49.998;19.880;2022-10-16T06:30:23;209.53;;;93.07;;
18267;SDS011;9260;49.998;19.880;2022-10-16T06:40:26;219.77;;;97.13;;
18267;SDS011;9260;49.998;19.880;2022-10-16T06:50:31;203.97;;;93.43;;
18267;SDS011;9260;49.998;19.880;2022-10-16T07:00:34;202.80;;;90.87;;
18267;SDS011;9260;49.998;19.880;2022-10-16T07:10:39;210.57;;;97.73;;
18267;SDS011;9260;49.998;19.880;2022-10-16T07:20:42;211.90;;;100.30;;
18267;SDS011;9260;49.998;19.880;2022-10-16T07:30:47;210.40;;;98.30;;
18267;SDS011;9260;49.998;19.880;2022-10-16T07:40:55;208.03;;;96.90;;
18267;SDS011;9260;49.998;19.880;2022-10-16T07:51:02;254.27;;;145.53;;
18267;SDS011;9260;49.998;19.880;2022-10-16T08:01:08;203.80;;;110.23;;
18267;SDS011;9260;49.998;19.880;2022-10-16T08:11:15;190.53;;;102.07;;
18267;SDS011;9260;49.998;19.880;2022-10-16T08:21:20;193.47;;;103.60;;
18267;SDS011;9260;49.998;19.880;2022-10-16T08:31:26;193.33;;;106.77;;
18267;SDS011;9260;49.998;19.880;2022-10-16T08:41:37;199.47;;;109.97;;
18267;SDS011;9260;49.998;19.880;2022-10-16T08:52:06;198.33;;;111.03;;
18267;SDS011;9260;49.998;19.880;2022-10-16T09:02:19;196.10;;;115.60;;
18267;SDS011;9260;49.998;19.880;2022-10-16T09:12:33;193.63;;;115.37;;
18267;SDS011;9260;49.998;19.880;2022-10-16T09:22:43;202.67;;;118.97;;
18267;SDS011;9260;49.998;19.880;2022-10-16T09:32:49;203.40;;;122.50;;
18267;SDS011;9260;49.998;19.880;2022-10-16T09:42:56;230.15;;;146.73;;
18267;SDS011;9260;49.998;19.880;2022-10-16T09:53:08;197.10;;;118.27;;
18267;SDS011;9260;49.998;19.880;2022-10-16T10:03:15;217.63;;;131.23;;
18267;SDS011;9260;49.998;19.880;2022-10-16T10:13:37;197.48;;;114.82;;
18267;SDS011;9260;49.998;19.880;2022-10-16T10:23:40;204.63;;;124.20;;
18267;SDS011;9260;49.998;19.880;2022-10-16T10:33:47;199.10;;;125.37;;
18267;SDS011;9260;49.998;19.880;2022-10-16T10:44:00;195.02;;;120.15;;
18267;SDS011;9260;49.998;19.880;2022-10-16T10:54:13;196.63;;;131.25;;
18267;SDS011;9260;49.998;19.880;2022-10-16T11:15:18;201.67;;;124.97;;
18267;SDS011;9260;49.998;19.880;2022-10-16T11:25:26;276.00;;;171.00;;
18267;SDS011;9260;49.998;19.880;2022-10-16T11:35:36;204.80;;;116.43;;
18267;SDS011;9260;49.998;19.880;2022-10-16T11:45:45;205.13;;;116.23;;
18267;SDS011;9260;49.998;19.880;2022-10-16T11:55:53;201.20;;;111.07;;
18267;SDS011;9260;49.998;19.880;2022-10-16T12:06:00;212.37;;;111.97;;
18267;SDS011;9260;49.998;19.880;2022-10-16T12:16:23;207.53;;;107.07;;
18267;SDS011;9260;49.998;19.880;2022-10-16T12:26:27;214.57;;;104.43;;
18267;SDS011;9260;49.998;19.880;2022-10-16T12:36:34;210.67;;;113.07;;
18267;SDS011;9260;49.998;19.880;2022-10-16T12:46:38;206.67;;;109.70;;
18267;SDS011;9260;49.998;19.880;2022-10-16T12:56:46;203.43;;;114.03;;
18267;SDS011;9260;49.998;19.880;2022-10-16T13:07:32;212.17;;;121.70;;
18267;SDS011;9260;49.998;19.880;2022-10-16T13:17:53;250.33;;;154.03;;
18267;SDS011;9260;49.998;19.880;2022-10-16T13:28:06;210.47;;;112.73;;
18267;SDS011;9260;49.998;19.880;2022-10-16T13:38:14;228.40;;;112.63;;
18267;SDS011;9260;49.998;19.880;2022-10-16T13:48:20;213.27;;;109.53;;
18267;SDS011;9260;49.998;19.880;2022-10-16T13:58:24;203.17;;;103.17;;
18267;SDS011;9260;49.998;19.880;2022-10-16T14:08:28;197.13;;;100.53;;
18267;SDS011;9260;49.998;19.880;2022-10-16T14:18:34;199.93;;;103.73;;
18267;SDS011;9260;49.998;19.880;2022-10-16T14:28:40;224.03;;;134.30;;
18267;SDS011;9260;49.998;19.880;2022-10-16T14:38:49;198.57;;;102.33;;
18267;SDS011;9260;49.998;19.880;2022-10-16T14:49:13;203.67;;;107.97;;
18267;SDS011;9260;49.998;19.880;2022-10-16T14:59:24;201.33;;;104.13;;
18267;SDS011;9260;49.998;19.880;2022-10-16T15:09:31;204.40;;;108.17;;
18267;SDS011;9260;49.998;19.880;2022-10-16T15:19:36;203.03;;;100.47;;
18267;SDS011;9260;49.998;19.880;2022-10-16T15:29:39;202.93;;;102.40;;
18267;SDS011;9260;49.998;19.880;2022-10-16T15:39:44;202.33;;;101.53;;
18267;SDS011;9260;49.998;19.880;2022-10-16T15:49:47;204.63;;;96.70;;
18267;SDS011;9260;49.998;19.880;2022-10-16T15:59:52;207.87;;;102.10;;
18267;SDS011;9260;49.998;19.880;2022-10-16T16:10:00;198.70;;;94.03;;
18267;SDS011;9260;49.998;19.880;2022-10-16T16:20:06;207.80;;;99.77;;
18267;SDS011;9260;49.998;19.880;2022-10-16T16:30:11;215.73;;;110.43;;
18267;SDS011;9260;49.998;19.880;2022-10-16T16:40:21;210.40;;;102.37;;
18267;SDS011;9260;49.998;19.880;2022-10-16T16:50:24;205.50;;;98.17;;
18267;SDS011;9260;49.998;19.880;2022-10-16T17:00:29;215.03;;;96.03;;
18267;SDS011;9260;49.998;19.880;2022-10-16T17:10:33;208.67;;;92.93;;
18267;SDS011;9260;49.998;19.880;2022-10-16T17:20:37;207.10;;;92.53;;
18267;SDS011;9260;49.998;19.880;2022-10-16T17:30:42;205.97;;;95.97;;
18267;SDS011;9260;49.998;19.880;2022-10-16T17:40:47;202.20;;;94.43;;
18267;SDS011;9260;49.998;19.880;2022-10-16T17:50:50;203.37;;;94.97;;
18267;SDS011;9260;49.998;19.880;2022-10-16T18:00:55;207.17;;;98.63;;
18267;SDS011;9260;49.998;19.880;2022-10-16T18:10:58;209.27;;;94.30;;
18267;SDS011;9260;49.998;19.880;2022-10-16T18:21:04;205.07;;;93.67;;
18267;SDS011;9260;49.998;19.880;2022-10-16T18:31:12;200.00;;;95.83;;
18267;SDS011;9260;49.998;19.880;2022-10-16T18:41:18;200.03;;;92.03;;
18267;SDS011;9260;49.998;19.880;2022-10-16T18:51:22;213.20;;;107.33;;
18267;SDS011;9260;49.998;19.880;2022-10-16T19:01:30;212.83;;;106.73;;
18267;SDS011;9260;49.998;19.880;2022-10-16T19:11:35;220.47;;;108.77;;
18267;SDS011;9260;49.998;19.880;2022-10-16T19:21:44;219.77;;;108.30;;
18267;SDS011;9260;49.998;19.880;2022-10-16T19:31:48;201.30;;;91.43;;
18267;SDS011;9260;49.998;19.880;2022-10-16T19:41:53;211.20;;;98.47;;
18267;SDS011;9260;49.998;19.880;2022-10-16T19:51:57;208.87;;;95.90;;
18267;SDS011;9260;49.998;19.880;2022-10-16T20:02:01;211.27;;;96.60;;
18267;SDS011;9260;49.998;19.880;2022-10-16T20:12:05;217.93;;;104.33;;
18267;SDS011;9260;49.998;19.880;2022-10-16T20:22:10;213.57;;;108.07;;
18267;SDS011;9260;49.998;19.880;2022-10-16T20:32:13;211.50;;;99.33;;
18267;SDS011;9260;49.998;19.880;2022-10-16T20:42:18;218.17;;;104.00;;
18267;SDS011;9260;49.998;19.880;2022-10-16T20:52:21;211.40;;;101.80;;
18267;SDS011;9260;49.998;19.880;2022-10-16T21:02:26;209.33;;;105.73;;
18267;SDS011;9260;49.998;19.880;2022-10-16T21:12:30;208.00;;;101.60;;
18267;SDS011;9260;49.998;19.880;2022-10-16T21:22:35;200.77;;;92.53;;
18267;SDS011;9260;49.998;19.880;2022-10-16T21:32:38;205.07;;;98.23;;
18267;SDS011;9260;49.998;19.880;2022-10-16T21:42:43;204.13;;;92.87;;
18267;SDS011;9260;49.998;19.880;2022-10-16T21:52:46;204.37;;;94.07;;
18267;SDS011;9260;49.998;19.880;2022-10-16T22:02:51;204.33;;;93.07;;
18267;SDS011;9260;49.998;19.880;2022-10-16T22:12:54;205.90;;;93.80;;
18267;SDS011;9260;49.998;19.880;2022-10-16T22:22:58;201.20;;;91.20;;
18267;SDS011;9260;49.998;19.880;2022-10-16T22:33:02;199.90;;;91.27;;
18267;SDS011;9260;49.998;19.880;2022-10-16T22:43:07;210.93;;;98.67;;
18267;SDS011;9260;49.998;19.880;2022-10-16T22:53:10;202.40;;;92.30;;
18267;SDS011;9260;49.998;19.880;2022-10-16T23:03:15;204.13;;;95.60;;
18267;SDS011;9260;49.998;19.880;2022-10-16T23:13:18;198.53;;;91.73;;
18267;SDS011;9260;49.998;19.880;2022-10-16T23:23:23;203.10;;;94.00;;
18267;SDS011;9260;49.998;19.880;2022-10-16T23:33:26;205.90;;;95.67;;
18267;SDS011;9260;49.998;19.880;2022-10-16T23:43:31;206.67;;;98.20;;
18267;SDS011;9260;49.998;19.880;2022-10-16T23:53:35;194.30;;;88.30;;
